Weather at Summit Pacific Medical Center Heliport

Public forecast

Using degrees Fahrenheit for public forecast. Weather courtesy of forecast.io.

Closest aviation weather report (METAR) to Summit Pacific Medical Center Heliport

Closest report is Sanderson Field, 16.9 nm (31.3 km) NE.

2024/06/14 10:53 (retrieved 37 minutes ago)

KSHN 141053Z AUTO 27008KT 10SM CLR 08/06 A3011 RMK AO2 SLP196 T00830061

Closest aviation forecast (TAF) to Summit Pacific Medical Center Heliport

Closest forecast is Olympia Regional Airport, 20.2 nm (37.3 km) E.

2024/06/14 06:22 (retrieved 5 hours ago)

TAF KOLM 140520Z 1406/1506 22008KT P6SM SKC FM141400 20005KT P6SM SCT080 BKN120 FM141800 20009KT P6SM VCSH BKN050 OVC100 FM150200 24005KT P6SM VCSH OVC050